createdAt,value
2023-04-15T00:01:22.766Z,71.60
2023-04-15T00:03:53.879Z,71.60
2023-04-15T00:06:22.872Z,71.70
2023-04-15T00:08:51.849Z,71.70
2023-04-15T00:11:20.824Z,71.60
2023-04-15T00:13:49.862Z,71.60
2023-04-15T00:16:20.518Z,71.80
2023-04-15T00:18:49.577Z,71.90
2023-04-15T00:21:18.558Z,72.00
2023-04-15T00:23:52.562Z,72.10
2023-04-15T00:26:21.758Z,72.30
2023-04-15T00:28:51.830Z,72.50
2023-04-15T00:31:23.306Z,72.50
2023-04-15T00:33:52.542Z,72.50
2023-04-15T00:36:21.621Z,72.60
2023-04-15T00:38:52.584Z,72.60
2023-04-15T00:41:23.242Z,72.70
2023-04-15T00:43:52.240Z,72.80
2023-04-15T00:46:23.751Z,72.90
2023-04-15T00:48:53.162Z,73.10
2023-04-15T00:51:22.193Z,73.20
2023-04-15T00:53:51.929Z,73.30
2023-04-15T00:56:24.520Z,73.50
2023-04-15T00:58:53.834Z,73.60
2023-04-15T01:01:26.069Z,73.80
2023-04-15T01:03:56.712Z,73.90
2023-04-15T01:06:27.345Z,74.00
2023-04-15T01:08:57.408Z,74.10
2023-04-15T01:11:26.826Z,74.10
2023-04-15T01:13:58.176Z,74.10
2023-04-15T01:16:29.791Z,74.20
2023-04-15T01:18:59.183Z,74.30
2023-04-15T01:21:28.469Z,74.40
2023-04-15T01:23:58.532Z,74.50
2023-04-15T01:26:29.253Z,74.60
2023-04-15T01:28:58.456Z,74.70
2023-04-15T01:31:27.633Z,74.70
2023-04-15T01:33:56.650Z,74.70
2023-04-15T01:36:44.158Z,74.60
2023-04-15T01:39:13.542Z,74.60
2023-04-15T01:41:44.221Z,74.60
2023-04-15T01:44:14.562Z,74.60
2023-04-15T01:46:44.831Z,74.60
2023-04-15T01:49:15.153Z,74.60
2023-04-15T01:51:45.630Z,74.70
2023-04-15T01:54:16.699Z,74.80
2023-04-15T01:56:49.493Z,74.80
2023-04-15T01:59:19.981Z,74.90
2023-04-15T02:01:50.936Z,75.00
2023-04-15T02:04:21.213Z,75.20
2023-04-15T02:06:51.581Z,75.30
2023-04-15T02:09:21.884Z,75.30
2023-04-15T02:11:54.403Z,75.30
2023-04-15T02:14:24.718Z,75.40
2023-04-15T02:16:55.075Z,75.50
2023-04-15T02:19:25.411Z,75.60
2023-04-15T02:21:55.708Z,75.70
2023-04-15T02:24:25.966Z,76.60
2023-04-15T02:26:57.841Z,75.80
2023-04-15T02:29:28.112Z,75.80
2023-04-15T02:31:58.402Z,76.00
2023-04-15T02:34:31.593Z,76.10
2023-04-15T02:37:04.011Z,76.10
2023-04-15T02:39:34.495Z,76.10
2023-04-15T02:42:06.522Z,76.20
2023-04-15T02:44:36.881Z,76.40
2023-04-15T02:47:08.536Z,76.40
2023-04-15T02:49:40.285Z,76.40
2023-04-15T02:52:10.564Z,76.40
2023-04-15T02:54:40.889Z,76.50
2023-04-15T02:57:13.037Z,77.40
2023-04-15T02:59:43.283Z,76.70
2023-04-15T03:02:13.623Z,76.60
2023-04-15T03:04:44.006Z,76.70
2023-04-15T03:07:14.318Z,76.70
2023-04-15T03:09:44.799Z,76.80
2023-04-15T03:12:17.147Z,76.80
2023-04-15T03:14:48.489Z,76.90
2023-04-15T03:17:19.050Z,76.90
2023-04-15T03:19:49.401Z,77.00
2023-04-15T03:22:19.753Z,76.90
2023-04-15T03:24:51.153Z,77.00
2023-04-15T03:27:22.808Z,77.00
2023-04-15T03:29:53.252Z,77.10
2023-04-15T03:32:25.986Z,77.10
2023-04-15T03:34:56.256Z,77.20
2023-04-15T03:37:26.601Z,77.20
2023-04-15T03:39:56.905Z,77.40
2023-04-15T03:42:28.577Z,77.40
2023-04-15T03:44:58.809Z,77.50
2023-04-15T03:47:29.142Z,77.60
2023-04-15T03:49:59.444Z,77.50
2023-04-15T03:52:29.692Z,77.60
2023-04-15T03:54:59.984Z,77.70
2023-04-15T03:57:31.925Z,77.80
2023-04-15T04:00:02.208Z,77.70
2023-04-15T04:02:42.314Z,77.90
2023-04-15T04:05:12.889Z,77.90
2023-04-15T04:07:43.193Z,78.00
2023-04-15T04:10:13.452Z,78.10
2023-04-15T04:12:45.119Z,78.30
2023-04-15T04:15:15.363Z,78.30
2023-04-15T04:17:45.669Z,78.30
2023-04-15T04:20:16.187Z,78.40
2023-04-15T04:22:46.438Z,78.50
2023-04-15T04:25:16.674Z,78.50
2023-04-15T04:27:48.327Z,78.50
2023-04-15T04:30:18.735Z,78.60
2023-04-15T04:32:49.203Z,78.70
2023-04-15T04:35:19.644Z,78.70
2023-04-15T04:37:50.025Z,78.80
2023-04-15T04:40:20.793Z,78.90
2023-04-15T04:42:52.493Z,78.90
2023-04-15T04:45:22.786Z,79.00
2023-04-15T04:47:53.091Z,78.90
2023-04-15T04:50:23.473Z,78.90
2023-04-15T04:52:53.763Z,79.00
2023-04-15T04:55:24.152Z,78.90
2023-04-15T04:57:55.911Z,79.00
2023-04-15T05:00:26.166Z,79.00
2023-04-15T05:02:56.639Z,78.90
2023-04-15T05:05:27.164Z,79.00
2023-04-15T05:07:57.464Z,79.10
2023-04-15T05:10:27.739Z,79.20
2023-04-15T05:12:59.414Z,79.30
2023-04-15T05:15:29.819Z,79.40
2023-04-15T05:18:00.484Z,79.50
2023-04-15T05:20:30.868Z,79.60
2023-04-15T05:23:01.203Z,79.60
2023-04-15T05:25:31.805Z,79.60
2023-04-15T05:28:03.452Z,79.60
2023-04-15T05:30:33.794Z,79.60
2023-04-15T05:33:04.116Z,79.60
2023-04-15T05:35:34.627Z,79.80
2023-04-15T05:38:05.003Z,79.80
2023-04-15T05:40:35.315Z,79.80
2023-04-15T05:43:07.331Z,80.00
2023-04-15T05:45:37.574Z,80.10
2023-04-15T05:48:08.465Z,80.10
2023-04-15T05:50:38.944Z,80.10
2023-04-15T05:53:09.508Z,80.10
2023-04-15T05:55:39.791Z,80.30
2023-04-15T05:58:11.492Z,80.20
2023-04-15T06:00:41.858Z,80.30
2023-04-15T06:03:12.723Z,80.30
2023-04-15T06:05:45.047Z,80.40
2023-04-15T06:08:15.389Z,80.30
2023-04-15T06:10:46.172Z,80.30
2023-04-15T06:13:18.258Z,80.10
2023-04-15T06:15:48.692Z,80.00
2023-04-15T06:18:19.951Z,79.80
2023-04-15T06:20:50.098Z,79.70
2023-04-15T06:23:20.506Z,79.50
2023-04-15T06:25:50.895Z,79.20
2023-04-15T06:28:22.771Z,79.10
2023-04-15T06:30:54.224Z,78.80
2023-04-15T06:33:24.687Z,79.50
2023-04-15T06:35:54.952Z,78.40
2023-04-15T06:38:25.504Z,78.20
2023-04-15T06:40:55.898Z,77.90
2023-04-15T06:43:27.598Z,77.90
2023-04-15T06:45:58.341Z,77.70
2023-04-15T06:48:28.632Z,77.50
2023-04-15T06:50:59.314Z,77.20
2023-04-15T06:53:29.633Z,76.90
2023-04-15T06:55:59.918Z,76.80
2023-04-15T06:58:31.636Z,76.70
2023-04-15T07:01:02.101Z,76.40
2023-04-15T07:03:33.023Z,76.10
2023-04-15T07:06:06.678Z,76.00
2023-04-15T07:08:36.976Z,75.70
2023-04-15T07:11:09.012Z,75.40
2023-04-15T07:13:40.688Z,75.20
2023-04-15T07:16:11.351Z,75.00
2023-04-15T07:18:41.881Z,74.80
2023-04-15T07:21:12.698Z,74.50
2023-04-15T07:23:43.980Z,74.30
2023-04-15T07:26:14.185Z,74.20
2023-04-15T07:28:46.561Z,74.00
2023-04-15T07:31:17.711Z,73.70
2023-04-15T07:33:48.208Z,73.60
2023-04-15T07:36:18.877Z,73.40
2023-04-15T07:38:49.240Z,73.20
2023-04-15T07:41:20.532Z,72.90
2023-04-15T07:43:52.267Z,72.60
2023-04-15T07:46:24.335Z,72.50
2023-04-15T07:48:54.693Z,72.00
2023-04-15T07:51:25.079Z,71.90
2023-04-15T07:53:55.526Z,71.70
2023-04-15T07:56:26.567Z,71.50
2023-04-15T07:58:58.312Z,71.30
2023-04-15T08:01:28.660Z,70.80
2023-04-15T08:03:59.262Z,71.00
2023-04-15T08:06:30.508Z,70.80
2023-04-15T08:09:01.243Z,70.60
2023-04-15T08:11:31.675Z,70.40
2023-04-15T08:14:03.624Z,70.10
2023-04-15T08:16:33.965Z,69.70
2023-04-15T08:19:04.860Z,69.60
2023-04-15T08:21:35.452Z,69.80
2023-04-15T08:24:05.983Z,69.70
2023-04-15T08:26:36.550Z,69.70
2023-04-15T08:29:08.310Z,69.50
2023-04-15T08:31:38.596Z,69.30
2023-04-15T08:34:09.342Z,69.00
2023-04-15T08:36:39.612Z,68.70
2023-04-15T08:39:10.018Z,68.50
2023-04-15T08:41:47.788Z,68.20
2023-04-15T08:44:20.238Z,67.70
2023-04-15T08:46:51.364Z,67.50
2023-04-15T08:49:23.448Z,67.30
2023-04-15T08:51:54.001Z,66.90
2023-04-15T08:54:24.473Z,66.60
2023-04-15T08:56:54.974Z,66.00
2023-04-15T08:59:27.122Z,65.90
2023-04-15T09:01:59.382Z,65.60
2023-04-15T09:04:30.242Z,65.30
2023-04-15T09:07:00.572Z,64.90
2023-04-15T09:09:31.391Z,64.40
2023-04-15T09:12:03.139Z,64.00
2023-04-15T09:14:35.207Z,63.80
2023-04-15T09:17:06.861Z,63.50
2023-04-15T09:19:37.834Z,63.20
2023-04-15T09:22:08.660Z,63.10
2023-04-15T09:24:42.355Z,63.20
2023-04-15T09:27:12.677Z,63.30
2023-04-15T09:29:44.344Z,63.40
2023-04-15T09:32:15.703Z,63.60
2023-04-15T09:34:46.143Z,64.00
2023-04-15T09:37:31.770Z,63.80
2023-04-15T09:40:02.485Z,63.90
2023-04-15T09:42:32.786Z,63.40
2023-04-15T09:45:12.766Z,63.30
2023-04-15T09:47:43.110Z,63.40
2023-04-15T09:50:14.752Z,63.50
2023-04-15T09:52:45.818Z,63.30
2023-04-15T09:55:17.163Z,63.00
2023-04-15T09:57:47.588Z,62.50
2023-04-15T10:00:19.388Z,62.90
2023-04-15T10:02:50.279Z,64.00
2023-04-15T10:05:20.851Z,63.30
2023-04-15T10:07:51.730Z,63.70
2023-04-15T10:10:22.355Z,63.70
2023-04-15T10:12:55.646Z,63.70
2023-04-15T10:15:29.628Z,64.10
2023-04-15T10:18:01.841Z,64.40
2023-04-15T10:20:32.608Z,64.60
2023-04-15T10:23:03.704Z,64.70
2023-04-15T10:25:35.454Z,64.60
2023-04-15T10:28:07.473Z,64.70
2023-04-15T10:30:40.042Z,64.70
2023-04-15T10:33:11.978Z,64.70
2023-04-15T10:35:43.356Z,65.00
2023-04-15T10:38:31.000Z,65.30
2023-04-15T10:41:17.077Z,65.60
2023-04-15T10:43:51.224Z,66.10
2023-04-15T10:46:25.735Z,66.30
2023-04-15T10:48:56.297Z,66.40
2023-04-15T10:51:33.394Z,66.60
2023-04-15T10:54:04.100Z,66.80
2023-04-15T10:56:34.613Z,67.40
2023-04-15T10:59:07.602Z,66.90
2023-04-15T11:01:56.695Z,66.80
2023-04-15T11:04:56.504Z,67.30
2023-04-15T11:07:41.262Z,67.60
2023-04-15T11:10:56.031Z,67.70
2023-04-15T11:13:31.810Z,67.60
2023-04-15T11:16:03.667Z,67.50
2023-04-15T11:18:36.384Z,67.40
2023-04-15T11:21:09.552Z,67.30
2023-04-15T11:23:44.258Z,67.30
2023-04-15T11:26:15.877Z,67.60
2023-04-15T11:28:47.320Z,67.70
2023-04-15T11:31:20.262Z,67.90
2023-04-15T11:33:59.455Z,67.80
2023-04-15T11:36:32.026Z,67.60
2023-04-15T11:39:02.551Z,67.90
2023-04-15T11:41:33.020Z,68.30
2023-04-15T11:44:03.623Z,68.40
2023-04-15T11:46:34.162Z,68.30
2023-04-15T11:49:05.983Z,68.30
2023-04-15T11:51:36.993Z,68.30
2023-04-15T11:54:06.500Z,68.90
2023-04-15T11:56:35.780Z,69.10
2023-04-15T11:59:04.856Z,69.20
2023-04-15T12:01:35.368Z,69.50
2023-04-15T12:04:13.580Z,69.50
2023-04-15T12:06:43.161Z,69.60
2023-04-15T12:09:13.832Z,69.80
2023-04-15T12:11:48.517Z,69.90
2023-04-15T12:14:25.778Z,70.20
2023-04-15T12:16:58.501Z,70.40
2023-04-15T12:19:30.944Z,70.70
2023-04-15T12:22:01.628Z,70.80
2023-04-15T12:24:33.549Z,70.70
2023-04-15T12:27:06.755Z,70.80
2023-04-15T12:29:37.072Z,71.00
2023-04-15T12:32:08.298Z,71.00
2023-04-15T12:34:45.880Z,71.00
2023-04-15T12:37:14.951Z,70.90
2023-04-15T12:39:45.510Z,71.50
2023-04-15T12:42:14.791Z,71.80
2023-04-15T12:44:44.017Z,71.80
2023-04-15T12:47:15.172Z,71.80
2023-04-15T12:49:45.831Z,71.50
2023-04-15T12:52:15.172Z,71.00
2023-04-15T12:54:44.197Z,70.60
2023-04-15T12:57:13.215Z,70.20
2023-04-15T12:59:42.733Z,69.50
2023-04-15T13:02:11.776Z,69.10
2023-04-15T13:04:41.059Z,69.00
2023-04-15T13:07:13.602Z,68.70
2023-04-15T13:09:42.731Z,68.60
2023-04-15T13:12:13.930Z,68.40
2023-04-15T13:14:43.196Z,68.30
2023-04-15T13:17:12.224Z,68.30
2023-04-15T13:19:41.797Z,68.30
2023-04-15T13:22:12.726Z,68.30
2023-04-15T13:24:41.985Z,68.60
2023-04-15T13:27:11.244Z,68.60
2023-04-15T13:29:40.524Z,68.40
2023-04-15T13:32:09.566Z,68.20
2023-04-15T13:34:38.606Z,68.20
2023-04-15T13:37:08.983Z,68.30
2023-04-15T13:39:39.521Z,68.30
2023-04-15T13:42:08.530Z,68.50
2023-04-15T13:44:37.782Z,68.50
2023-04-15T13:47:06.893Z,68.60
2023-04-15T13:49:36.418Z,68.90
2023-04-15T13:52:05.506Z,69.10
2023-04-15T13:54:37.766Z,69.40
2023-04-15T13:57:08.881Z,69.40
2023-04-15T13:59:37.995Z,69.30
2023-04-15T14:02:07.168Z,69.30
2023-04-15T14:04:36.248Z,69.30
2023-04-15T14:07:05.501Z,69.50
2023-04-15T14:09:35.491Z,69.60
2023-04-15T14:12:05.067Z,70.50
2023-04-15T14:14:35.599Z,69.50
2023-04-15T14:17:05.514Z,69.60
2023-04-15T14:19:35.071Z,69.80
2023-04-15T14:22:04.708Z,70.00
2023-04-15T14:24:33.753Z,70.00
2023-04-15T14:27:02.857Z,70.00
2023-04-15T14:29:32.503Z,70.10
2023-04-15T14:32:11.677Z,70.10
2023-04-15T14:34:41.873Z,70.10
2023-04-15T14:37:10.989Z,70.20
2023-04-15T14:39:40.043Z,70.20
2023-04-15T14:42:09.021Z,70.30
2023-04-15T14:44:38.293Z,70.30
2023-04-15T14:47:10.177Z,70.30
2023-04-15T14:49:39.188Z,70.10
2023-04-15T14:52:08.208Z,70.20
2023-04-15T14:54:37.274Z,70.30
2023-04-15T14:57:06.352Z,70.20
2023-04-15T14:59:35.385Z,70.50
2023-04-15T15:02:04.722Z,70.60
2023-04-15T15:04:36.421Z,70.60
2023-04-15T15:07:05.766Z,70.70
2023-04-15T15:09:35.147Z,70.70
2023-04-15T15:12:04.227Z,70.80
2023-04-15T15:14:33.340Z,71.80
2023-04-15T15:17:02.495Z,71.10
2023-04-15T15:19:31.656Z,70.90
2023-04-15T15:22:02.097Z,70.90
2023-04-15T15:24:31.200Z,70.90
2023-04-15T15:27:00.632Z,70.90
2023-04-15T15:29:29.713Z,70.80
2023-04-15T15:31:58.844Z,70.90
2023-04-15T15:34:28.350Z,71.00
2023-04-15T15:36:57.708Z,71.00
2023-04-15T15:39:30.997Z,71.10
2023-04-15T15:42:00.118Z,71.20
2023-04-15T15:44:29.162Z,71.20
2023-04-15T15:46:58.384Z,71.20
2023-04-15T15:49:30.349Z,71.20
2023-04-15T15:51:59.522Z,71.20
2023-04-15T15:54:30.099Z,71.20
2023-04-15T15:56:59.154Z,71.60
2023-04-15T15:59:28.344Z,71.70
2023-04-15T16:01:57.524Z,71.90
2023-04-15T16:04:27.151Z,72.20
2023-04-15T16:06:56.288Z,72.30
2023-04-15T16:09:25.603Z,72.20
2023-04-15T16:11:56.038Z,72.40
2023-04-15T16:14:26.338Z,72.40
2023-04-15T16:16:55.416Z,72.60
2023-04-15T16:19:24.534Z,72.70
2023-04-15T16:21:53.715Z,72.90
2023-04-15T16:24:22.745Z,73.10
2023-04-15T16:26:51.714Z,73.30
2023-04-15T16:29:22.205Z,73.50
2023-04-15T16:31:51.376Z,73.70
2023-04-15T16:34:20.469Z,73.80
2023-04-15T16:36:49.502Z,74.10
2023-04-15T16:39:19.916Z,74.30
2023-04-15T16:41:48.879Z,74.60
2023-04-15T16:44:18.117Z,74.90
2023-04-15T16:46:48.570Z,75.00
2023-04-15T16:49:17.589Z,75.20
2023-04-15T16:51:49.757Z,75.40
2023-04-15T16:54:18.846Z,75.50
2023-04-15T16:56:47.866Z,75.60
2023-04-15T16:59:16.957Z,75.70
2023-04-15T17:01:46.291Z,75.80
2023-04-15T17:04:16.958Z,75.80
2023-04-15T17:06:46.129Z,75.80
2023-04-15T17:09:15.224Z,75.60
2023-04-15T17:11:45.640Z,74.40
2023-04-15T17:14:14.684Z,72.80
2023-04-15T17:16:44.431Z,71.50
2023-04-15T17:19:13.536Z,70.50
2023-04-15T17:21:54.774Z,69.50
2023-04-15T17:24:24.416Z,68.60
2023-04-15T17:26:58.012Z,68.00
2023-04-15T17:29:27.339Z,67.80
2023-04-15T17:31:58.544Z,67.30
2023-04-15T17:34:50.546Z,66.80
2023-04-15T17:37:41.585Z,66.40
2023-04-15T17:40:30.589Z,66.20
2023-04-15T17:43:19.563Z,66.10
2023-04-15T17:46:09.016Z,65.70
2023-04-15T17:48:58.335Z,65.60
2023-04-15T17:51:47.225Z,65.50
2023-04-15T17:54:37.588Z,65.20
2023-04-15T17:57:26.642Z,65.10
2023-04-15T18:00:16.216Z,65.20
2023-04-15T18:03:05.819Z,65.20
2023-04-15T18:05:54.795Z,65.30
2023-04-15T18:08:43.762Z,65.40
2023-04-15T18:11:34.380Z,65.50
2023-04-15T18:14:33.534Z,65.70
2023-04-15T18:17:23.025Z,65.80
2023-04-15T18:20:12.933Z,65.90
2023-04-15T18:22:41.985Z,66.10
2023-04-15T18:25:11.566Z,66.20
2023-04-15T18:27:42.280Z,66.40
2023-04-15T18:30:12.499Z,66.40
2023-04-15T18:32:42.588Z,66.50
2023-04-15T18:35:11.672Z,66.50
2023-04-15T18:37:40.741Z,66.70
2023-04-15T18:40:10.662Z,66.70
2023-04-15T18:42:41.157Z,66.70
2023-04-15T18:45:10.927Z,66.80
2023-04-15T18:47:40.138Z,67.00
2023-04-15T18:50:10.218Z,67.50
2023-04-15T18:52:39.281Z,67.90
2023-04-15T18:55:09.222Z,68.20
2023-04-15T18:57:42.530Z,68.50
2023-04-15T19:00:16.219Z,68.80
2023-04-15T19:02:45.347Z,69.10
2023-04-15T19:05:14.539Z,69.40
2023-04-15T19:07:43.745Z,69.60
2023-04-15T19:10:12.939Z,69.90
2023-04-15T19:12:41.978Z,70.00
2023-04-15T19:15:11.617Z,70.00
2023-04-15T19:17:41.946Z,70.20
2023-04-15T19:20:11.600Z,70.30
2023-04-15T19:22:40.822Z,70.30
2023-04-15T19:25:10.785Z,70.50
2023-04-15T19:27:39.852Z,70.70
2023-04-15T19:30:09.677Z,71.60
2023-04-15T19:32:38.755Z,70.90
2023-04-15T19:35:11.560Z,71.10
2023-04-15T19:37:40.904Z,71.20
2023-04-15T19:40:10.960Z,71.30
2023-04-15T19:42:39.978Z,71.40
2023-04-15T19:45:09.850Z,71.60
2023-04-15T19:47:39.326Z,71.70
2023-04-15T19:50:11.929Z,71.80
2023-04-15T19:52:40.974Z,71.90
2023-04-15T19:55:10.311Z,72.00
2023-04-15T19:57:39.358Z,72.10
2023-04-15T20:00:09.930Z,72.50
2023-04-15T20:02:39.053Z,73.00
2023-04-15T20:05:10.822Z,73.70
2023-04-15T20:07:42.416Z,74.30
2023-04-15T20:10:13.312Z,75.00
2023-04-15T20:12:50.981Z,75.60
2023-04-15T20:15:22.763Z,76.30
2023-04-15T20:17:51.947Z,76.80
2023-04-15T20:20:22.835Z,77.30
2023-04-15T20:22:53.122Z,77.90
2023-04-15T20:25:22.168Z,78.20
2023-04-15T20:27:51.201Z,78.40
2023-04-15T20:30:20.774Z,78.70
2023-04-15T20:32:49.862Z,79.00
2023-04-15T20:35:19.885Z,79.20
2023-04-15T20:37:50.515Z,79.40
2023-04-15T20:40:19.773Z,79.60
2023-04-15T20:42:48.772Z,79.70
2023-04-15T20:45:18.104Z,79.90
2023-04-15T20:47:47.157Z,80.10
2023-04-15T20:50:16.197Z,80.10
2023-04-15T20:52:45.218Z,80.30
2023-04-15T20:55:15.795Z,80.40
2023-04-15T20:57:44.829Z,80.50
2023-04-15T21:00:14.401Z,80.50
2023-04-15T21:02:43.706Z,80.50
2023-04-15T21:05:12.979Z,80.50
2023-04-15T21:07:42.228Z,80.60
2023-04-15T21:10:11.925Z,80.50
2023-04-15T21:12:42.717Z,80.60
2023-04-15T21:15:12.775Z,80.70
2023-04-15T21:17:41.882Z,80.60
2023-04-15T21:20:12.104Z,80.60
2023-04-15T21:22:41.305Z,80.60
2023-04-15T21:25:11.073Z,80.80
2023-04-15T21:27:41.394Z,80.80
2023-04-15T21:30:11.424Z,80.80
2023-04-15T21:32:40.824Z,80.90
2023-04-15T21:35:10.673Z,80.80
2023-04-15T21:37:39.659Z,80.90
2023-04-15T21:40:10.040Z,80.90
2023-04-15T21:42:39.046Z,81.10
2023-04-15T21:45:10.450Z,80.90
2023-04-15T21:47:59.707Z,80.90
2023-04-15T21:50:28.491Z,80.80
2023-04-15T21:52:57.793Z,80.80
2023-04-15T21:55:26.976Z,80.90
2023-04-15T21:57:55.954Z,81.00
2023-04-15T22:00:26.389Z,81.10
2023-04-15T22:02:55.491Z,81.20
2023-04-15T22:05:24.566Z,81.10
2023-04-15T22:07:53.536Z,81.10
2023-04-15T22:10:22.693Z,81.00
2023-04-15T22:12:51.656Z,81.00
2023-04-15T22:15:20.727Z,80.90
2023-04-15T22:17:51.232Z,80.80
2023-04-15T22:20:20.389Z,80.90
2023-04-15T22:22:49.432Z,80.80
2023-04-15T22:25:23.522Z,80.80
2023-04-15T22:27:52.571Z,80.80
2023-04-15T22:30:21.776Z,80.80
2023-04-15T22:32:52.236Z,80.80
2023-04-15T22:35:21.204Z,81.00
2023-04-15T22:37:50.187Z,81.10
2023-04-15T22:40:19.408Z,81.10
2023-04-15T22:42:48.451Z,81.30
2023-04-15T22:45:17.664Z,81.50
2023-04-15T22:47:46.802Z,81.50
2023-04-15T22:50:17.289Z,81.70
2023-04-15T22:52:47.491Z,81.80
2023-04-15T22:55:17.272Z,82.00
2023-04-15T22:57:46.255Z,82.10
2023-04-15T23:00:15.495Z,82.30
2023-04-15T23:02:44.535Z,82.40
2023-04-15T23:05:13.650Z,82.60
2023-04-15T23:07:44.089Z,82.80
2023-04-15T23:10:13.043Z,82.90
2023-04-15T23:12:41.996Z,83.00
2023-04-15T23:15:11.842Z,83.10
2023-04-15T23:17:41.042Z,83.20
2023-04-15T23:20:11.392Z,83.30
2023-04-15T23:22:42.023Z,83.40
2023-04-15T23:25:12.505Z,83.30
2023-04-15T23:27:41.489Z,83.30
2023-04-15T23:30:11.087Z,83.40
2023-04-15T23:32:40.140Z,83.60
2023-04-15T23:35:10.012Z,83.60
2023-04-15T23:37:38.995Z,83.80
2023-04-15T23:40:09.316Z,83.90
2023-04-15T23:42:39.659Z,84.10
2023-04-15T23:45:09.851Z,84.30
2023-04-15T23:47:39.433Z,84.50
2023-04-15T23:50:09.290Z,84.70
2023-04-15T23:52:38.295Z,84.90
2023-04-15T23:55:08.271Z,85.00
2023-04-15T23:57:37.312Z,85.20
